sensor_id;sensor_type;location;lat;lon;timestamp;pressure;altitude;pressure_sealevel;temperature;humidity
33554;BME280;19885;42.208;24.952;2023-03-03T00:01:37;100220.81;;;7.63;100.00
33554;BME280;19885;42.208;24.952;2023-03-03T00:04:06;100212.84;;;7.57;100.00
33554;BME280;19885;42.208;24.952;2023-03-03T00:06:34;100212.81;;;7.54;100.00
33554;BME280;19885;42.208;24.952;2023-03-03T00:08:59;100215.31;;;7.51;100.00
33554;BME280;19885;42.208;24.952;2023-03-03T00:11:27;100197.06;;;7.48;100.00
33554;BME280;19885;42.208;24.952;2023-03-03T00:13:55;100206.63;;;7.49;100.00
33554;BME280;19885;42.208;24.952;2023-03-03T00:18:50;100202.25;;;7.46;100.00
33554;BME280;19885;42.208;24.952;2023-03-03T00:21:25;100182.22;;;7.41;100.00
33554;BME280;19885;42.208;24.952;2023-03-03T00:24:10;100188.28;;;7.41;100.00
33554;BME280;19885;42.208;24.952;2023-03-03T00:26:53;100176.00;;;7.34;100.00
33554;BME280;19885;42.208;24.952;2023-03-03T00:29:40;100191.88;;;7.46;100.00
33554;BME280;19885;42.208;24.952;2023-03-03T00:34:42;100179.69;;;7.42;100.00
33554;BME280;19885;42.208;24.952;2023-03-03T00:37:32;100175.44;;;7.46;100.00
33554;BME280;19885;42.208;24.952;2023-03-03T00:42:34;100173.75;;;7.48;100.00
33554;BME280;19885;42.208;24.952;2023-03-03T00:45:00;100161.69;;;7.50;100.00
33554;BME280;19885;42.208;24.952;2023-03-03T00:55:30;100160.94;;;7.54;100.00
33554;BME280;19885;42.208;24.952;2023-03-03T00:57:56;100143.63;;;7.53;100.00
33554;BME280;19885;42.208;24.952;2023-03-03T01:00:22;100138.41;;;7.51;100.00
33554;BME280;19885;42.208;24.952;2023-03-03T01:02:51;100145.34;;;7.52;100.00
33554;BME280;19885;42.208;24.952;2023-03-03T01:05:17;100120.88;;;7.41;100.00
33554;BME280;19885;42.208;24.952;2023-03-03T01:07:43;100132.31;;;7.49;100.00
33554;BME280;19885;42.208;24.952;2023-03-03T01:10:10;100130.59;;;7.50;100.00
33554;BME280;19885;42.208;24.952;2023-03-03T01:12:38;100128.94;;;7.52;100.00
33554;BME280;19885;42.208;24.952;2023-03-03T01:15:09;100130.59;;;7.50;100.00
33554;BME280;19885;42.208;24.952;2023-03-03T01:17:35;100135.72;;;7.47;100.00
33554;BME280;19885;42.208;24.952;2023-03-03T01:20:02;100134.91;;;7.49;100.00
33554;BME280;19885;42.208;24.952;2023-03-03T01:22:28;100131.47;;;7.50;100.00
33554;BME280;19885;42.208;24.952;2023-03-03T01:24:54;100130.59;;;7.50;100.00
33554;BME280;19885;42.208;24.952;2023-03-03T01:27:19;100126.28;;;7.50;99.81
33554;BME280;19885;42.208;24.952;2023-03-03T01:29:45;100132.44;;;7.54;100.00
33554;BME280;19885;42.208;24.952;2023-03-03T01:32:10;100130.66;;;7.53;100.00
33554;BME280;19885;42.208;24.952;2023-03-03T01:34:36;100125.50;;;7.54;100.00
33554;BME280;19885;42.208;24.952;2023-03-03T01:37:04;100133.91;;;7.43;100.00
33554;BME280;19885;42.208;24.952;2023-03-03T01:39:30;100138.03;;;7.36;100.00
33554;BME280;19885;42.208;24.952;2023-03-03T01:41:55;100126.88;;;7.39;100.00
33554;BME280;19885;42.208;24.952;2023-03-03T01:44:21;100128.84;;;7.49;100.00
33554;BME280;19885;42.208;24.952;2023-03-03T01:49:45;100109.84;;;7.50;100.00
33554;BME280;19885;42.208;24.952;2023-03-03T01:52:26;100117.06;;;7.63;100.00
33554;BME280;19885;42.208;24.952;2023-03-03T01:55:02;100108.31;;;7.58;100.00
33554;BME280;19885;42.208;24.952;2023-03-03T01:57:32;100112.63;;;7.59;100.00
33554;BME280;19885;42.208;24.952;2023-03-03T02:00:01;100127.94;;;7.47;99.88
33554;BME280;19885;42.208;24.952;2023-03-03T02:02:31;100126.94;;;7.40;100.00
33554;BME280;19885;42.208;24.952;2023-03-03T02:04:57;100119.16;;;7.42;100.00
33554;BME280;19885;42.208;24.952;2023-03-03T02:07:24;100123.44;;;7.40;100.00
33554;BME280;19885;42.208;24.952;2023-03-03T02:10:15;100125.03;;;7.33;100.00
33554;BME280;19885;42.208;24.952;2023-03-03T02:12:43;100127.50;;;7.29;100.00
33554;BME280;19885;42.208;24.952;2023-03-03T02:15:30;100130.69;;;7.17;100.00
33554;BME280;19885;42.208;24.952;2023-03-03T02:18:11;100114.47;;;7.26;100.00
33554;BME280;19885;42.208;24.952;2023-03-03T02:28:29;100120.06;;;7.44;100.00
33554;BME280;19885;42.208;24.952;2023-03-03T02:30:57;100123.63;;;7.47;100.00
33554;BME280;19885;42.208;24.952;2023-03-03T02:33:23;100095.53;;;7.30;100.00
33554;BME280;19885;42.208;24.952;2023-03-03T02:35:50;100102.72;;;7.40;100.00
33554;BME280;19885;42.208;24.952;2023-03-03T02:38:32;100061.44;;;7.11;100.00
33554;BME280;19885;42.208;24.952;2023-03-03T02:46:10;100105.44;;;7.46;100.00
33554;BME280;19885;42.208;24.952;2023-03-03T02:48:36;100114.13;;;7.48;100.00
33554;BME280;19885;42.208;24.952;2023-03-03T02:51:01;100126.34;;;7.52;100.00
33554;BME280;19885;42.208;24.952;2023-03-03T02:53:27;100108.09;;;7.49;100.00
33554;BME280;19885;42.208;24.952;2023-03-03T02:55:52;100115.03;;;7.50;100.00
33554;BME280;19885;42.208;24.952;2023-03-03T02:58:18;100116.88;;;7.54;100.00
33554;BME280;19885;42.208;24.952;2023-03-03T03:00:46;100118.50;;;7.50;100.00
33554;BME280;19885;42.208;24.952;2023-03-03T03:03:14;100112.50;;;7.51;99.90
33554;BME280;19885;42.208;24.952;2023-03-03T03:05:40;100113.25;;;7.47;100.00
33554;BME280;19885;42.208;24.952;2023-03-03T03:08:06;100113.25;;;7.47;99.78
33554;BME280;19885;42.208;24.952;2023-03-03T03:10:35;100121.94;;;7.49;100.00
33554;BME280;19885;42.208;24.952;2023-03-03T03:13:00;100053.63;;;7.10;100.00
33554;BME280;19885;42.208;24.952;2023-03-03T03:15:28;100108.03;;;7.46;100.00
33554;BME280;19885;42.208;24.952;2023-03-03T03:17:59;100119.41;;;7.52;100.00
33554;BME280;19885;42.208;24.952;2023-03-03T03:20:25;100113.41;;;7.53;100.00
33554;BME280;19885;42.208;24.952;2023-03-03T03:22:53;100109.91;;;7.51;99.93
33554;BME280;19885;42.208;24.952;2023-03-03T03:25:18;100101.13;;;7.46;99.80
33554;BME280;19885;42.208;24.952;2023-03-03T03:27:44;100096.88;;;7.50;100.00
33554;BME280;19885;42.208;24.952;2023-03-03T03:30:10;100098.63;;;7.51;99.81
33554;BME280;19885;42.208;24.952;2023-03-03T03:32:35;100095.03;;;7.44;100.00
33554;BME280;19885;42.208;24.952;2023-03-03T03:35:03;100092.41;;;7.07;100.00
33554;BME280;19885;42.208;24.952;2023-03-03T03:37:29;100102.63;;;7.37;100.00
33554;BME280;19885;42.208;24.952;2023-03-03T03:39:57;100105.50;;;7.49;100.00
33554;BME280;19885;42.208;24.952;2023-03-03T03:42:23;100101.06;;;7.43;100.00
33554;BME280;19885;42.208;24.952;2023-03-03T03:44:48;100100.44;;;7.53;100.00
33554;BME280;19885;42.208;24.952;2023-03-03T03:47:15;100090.13;;;7.56;99.58
33554;BME280;19885;42.208;24.952;2023-03-03T03:49:40;100094.50;;;7.59;99.59
33554;BME280;19885;42.208;24.952;2023-03-03T03:52:06;100093.38;;;7.48;99.25
33554;BME280;19885;42.208;24.952;2023-03-03T03:54:31;100093.31;;;7.45;100.00
33554;BME280;19885;42.208;24.952;2023-03-03T03:56:56;100089.19;;;7.53;99.54
33554;BME280;19885;42.208;24.952;2023-03-03T03:59:22;100104.66;;;7.50;99.63
33554;BME280;19885;42.208;24.952;2023-03-03T04:01:50;100104.94;;;7.62;99.78
33554;BME280;19885;42.208;24.952;2023-03-03T04:04:16;100094.50;;;7.59;99.34
33554;BME280;19885;42.208;24.952;2023-03-03T04:06:42;100097.06;;;7.59;99.02
33554;BME280;19885;42.208;24.952;2023-03-03T04:09:07;100089.19;;;7.54;99.46
33554;BME280;19885;42.208;24.952;2023-03-03T04:11:32;100094.25;;;7.47;99.18
33554;BME280;19885;42.208;24.952;2023-03-03T04:13:58;100096.94;;;7.51;99.32
33554;BME280;19885;42.208;24.952;2023-03-03T04:16:23;100099.63;;;7.56;99.45
33554;BME280;19885;42.208;24.952;2023-03-03T04:18:49;100097.91;;;7.56;99.37
33554;BME280;19885;42.208;24.952;2023-03-03T04:21:15;100082.25;;;7.52;99.61
33554;BME280;19885;42.208;24.952;2023-03-03T04:23:40;100094.53;;;7.60;98.96
33554;BME280;19885;42.208;24.952;2023-03-03T04:26:06;100091.03;;;7.58;98.85
33554;BME280;19885;42.208;24.952;2023-03-03T04:28:35;100095.38;;;7.59;99.15
33554;BME280;19885;42.208;24.952;2023-03-03T04:31:00;100070.00;;;7.45;99.70
33554;BME280;19885;42.208;24.952;2023-03-03T04:33:28;100098.72;;;7.54;99.74
33554;BME280;19885;42.208;24.952;2023-03-03T04:35:53;100097.81;;;7.52;100.00
33554;BME280;19885;42.208;24.952;2023-03-03T04:38:19;100070.84;;;7.45;99.65
33554;BME280;19885;42.208;24.952;2023-03-03T04:40:45;100098.94;;;7.64;99.44
33554;BME280;19885;42.208;24.952;2023-03-03T04:43:13;100087.75;;;7.65;98.96
33554;BME280;19885;42.208;24.952;2023-03-03T04:45:38;100089.38;;;7.62;99.35
33554;BME280;19885;42.208;24.952;2023-03-03T04:48:04;100083.28;;;7.60;98.69
33554;BME280;19885;42.208;24.952;2023-03-03T04:50:30;100075.44;;;7.57;98.59
33554;BME280;19885;42.208;24.952;2023-03-03T04:52:55;100075.28;;;7.49;98.77
33554;BME280;19885;42.208;24.952;2023-03-03T04:55:21;100079.72;;;7.55;98.68
33554;BME280;19885;42.208;24.952;2023-03-03T04:57:46;100089.47;;;7.65;99.01
33554;BME280;19885;42.208;24.952;2023-03-03T05:00:13;100092.88;;;7.64;99.81
33554;BME280;19885;42.208;24.952;2023-03-03T05:02:39;100086.75;;;7.60;99.43
33554;BME280;19885;42.208;24.952;2023-03-03T05:05:06;100090.28;;;7.64;99.49
33554;BME280;19885;42.208;24.952;2023-03-03T05:07:32;100083.38;;;7.64;99.68
33554;BME280;19885;42.208;24.952;2023-03-03T05:09:57;100094.75;;;7.71;99.92
33554;BME280;19885;42.208;24.952;2023-03-03T05:12:23;100095.66;;;7.71;99.40
33554;BME280;19885;42.208;24.952;2023-03-03T05:14:49;100099.94;;;7.71;99.72
33554;BME280;19885;42.208;24.952;2023-03-03T05:17:14;100086.00;;;7.66;99.65
33554;BME280;19885;42.208;24.952;2023-03-03T05:19:40;100097.25;;;7.66;99.39
33554;BME280;19885;42.208;24.952;2023-03-03T05:22:06;100102.63;;;7.74;99.52
33554;BME280;19885;42.208;24.952;2023-03-03T05:24:31;100100.06;;;7.75;99.12
33554;BME280;19885;42.208;24.952;2023-03-03T05:26:57;100092.97;;;7.68;99.42
33554;BME280;19885;42.208;24.952;2023-03-03T05:29:31;100100.16;;;7.81;99.07
33554;BME280;19885;42.208;24.952;2023-03-03T05:32:00;100091.59;;;7.84;98.64
33554;BME280;19885;42.208;24.952;2023-03-03T05:34:26;100095.97;;;7.86;98.37
33554;BME280;19885;42.208;24.952;2023-03-03T05:36:54;100094.38;;;7.93;98.39
33554;BME280;19885;42.208;24.952;2023-03-03T05:39:20;100097.88;;;7.95;98.21
33554;BME280;19885;42.208;24.952;2023-03-03T05:41:46;100097.97;;;8.00;98.24
33554;BME280;19885;42.208;24.952;2023-03-03T05:44:15;100088.34;;;7.94;97.99
33554;BME280;19885;42.208;24.952;2023-03-03T05:46:41;100097.34;;;8.11;98.47
33554;BME280;19885;42.208;24.952;2023-03-03T05:49:07;100107.78;;;8.14;97.62
33554;BME280;19885;42.208;24.952;2023-03-03T05:51:33;100092.22;;;8.14;98.38
33554;BME280;19885;42.208;24.952;2023-03-03T05:53:59;100094.81;;;8.14;98.29
33554;BME280;19885;42.208;24.952;2023-03-03T05:56:26;100103.66;;;8.24;98.29
33554;BME280;19885;42.208;24.952;2023-03-03T05:58:51;100102.88;;;8.26;98.27
33554;BME280;19885;42.208;24.952;2023-03-03T06:01:22;100049.63;;;8.03;97.44
33554;BME280;19885;42.208;24.952;2023-03-03T06:03:48;100087.34;;;8.29;97.30
33554;BME280;19885;42.208;24.952;2023-03-03T06:06:14;100095.28;;;8.37;96.95
33554;BME280;19885;42.208;24.952;2023-03-03T06:08:41;100103.25;;;8.44;96.75
33554;BME280;19885;42.208;24.952;2023-03-03T06:11:07;100110.22;;;8.48;96.41
33554;BME280;19885;42.208;24.952;2023-03-03T06:13:33;100112.75;;;8.44;96.08
33554;BME280;19885;42.208;24.952;2023-03-03T06:15:59;100105.84;;;8.46;95.42
33554;BME280;19885;42.208;24.952;2023-03-03T06:18:25;100106.91;;;8.55;95.57
33554;BME280;19885;42.208;24.952;2023-03-03T06:20:54;100096.59;;;8.58;95.78
33554;BME280;19885;42.208;24.952;2023-03-03T06:23:20;100125.31;;;8.68;96.26
33554;BME280;19885;42.208;24.952;2023-03-03T06:25:46;100114.97;;;8.71;96.53
33554;BME280;19885;42.208;24.952;2023-03-03T06:28:13;100117.69;;;8.77;95.73
33554;BME280;19885;42.208;24.952;2023-03-03T06:30:39;100119.50;;;8.81;94.89
33554;BME280;19885;42.208;24.952;2023-03-03T06:33:04;100117.88;;;8.87;95.44
33554;BME280;19885;42.208;24.952;2023-03-03T06:35:30;100114.31;;;8.84;94.81
33554;BME280;19885;42.208;24.952;2023-03-03T06:37:56;100123.56;;;8.68;95.03
33554;BME280;19885;42.208;24.952;2023-03-03T06:40:21;100128.81;;;8.70;93.85
33554;BME280;19885;42.208;24.952;2023-03-03T06:42:47;100127.13;;;8.72;95.01
33554;BME280;19885;42.208;24.952;2023-03-03T06:45:13;100110.31;;;8.53;94.93
33554;BME280;19885;42.208;24.952;2023-03-03T06:47:39;100121.19;;;8.79;94.89
33554;BME280;19885;42.208;24.952;2023-03-03T06:50:05;100121.22;;;8.82;94.26
33554;BME280;19885;42.208;24.952;2023-03-03T06:52:31;100122.19;;;8.88;93.63
33554;BME280;19885;42.208;24.952;2023-03-03T06:54:58;100116.00;;;8.80;94.29
33554;BME280;19885;42.208;24.952;2023-03-03T06:57:28;100108.97;;;8.75;93.31
33554;BME280;19885;42.208;24.952;2023-03-03T06:59:57;100066.25;;;8.57;93.08
33554;BME280;19885;42.208;24.952;2023-03-03T07:02:24;100116.16;;;8.88;92.75
33554;BME280;19885;42.208;24.952;2023-03-03T07:04:52;100109.28;;;8.93;93.68
33554;BME280;19885;42.208;24.952;2023-03-03T07:07:23;100119.75;;;8.96;93.20
33554;BME280;19885;42.208;24.952;2023-03-03T07:09:52;100107.16;;;8.71;92.50
33554;BME280;19885;42.208;24.952;2023-03-03T07:12:25;100119.75;;;8.97;91.45
33554;BME280;19885;42.208;24.952;2023-03-03T07:15:15;100116.41;;;9.01;89.31
33554;BME280;19885;42.208;24.952;2023-03-03T07:17:47;100120.63;;;8.95;88.99
33554;BME280;19885;42.208;24.952;2023-03-03T07:20:24;100111.22;;;9.03;89.35
33554;BME280;19885;42.208;24.952;2023-03-03T07:22:52;100124.25;;;9.06;88.60
33554;BME280;19885;42.208;24.952;2023-03-03T07:25:30;100111.88;;;8.91;86.92
33554;BME280;19885;42.208;24.952;2023-03-03T07:28:34;100124.88;;;8.93;86.23
33554;BME280;19885;42.208;24.952;2023-03-03T07:30:59;100123.06;;;8.86;86.13
33554;BME280;19885;42.208;24.952;2023-03-03T07:33:38;100125.91;;;8.54;86.85
33554;BME280;19885;42.208;24.952;2023-03-03T07:36:17;100118.94;;;8.50;88.23
33554;BME280;19885;42.208;24.952;2023-03-03T07:38:59;100117.56;;;8.71;88.89
33554;BME280;19885;42.208;24.952;2023-03-03T07:41:26;100116.03;;;8.82;86.88
33554;BME280;19885;42.208;24.952;2023-03-03T07:44:08;100118.13;;;8.54;86.35
33554;BME280;19885;42.208;24.952;2023-03-03T07:49:35;100112.03;;;8.52;88.02
33554;BME280;19885;42.208;24.952;2023-03-03T07:54:44;100110.00;;;8.36;88.40
33554;BME280;19885;42.208;24.952;2023-03-03T07:59:36;100110.94;;;8.40;85.79
33554;BME280;19885;42.208;24.952;2023-03-03T08:02:19;100109.00;;;8.30;87.09
33554;BME280;19885;42.208;24.952;2023-03-03T08:04:55;100100.28;;;8.73;86.83
33554;BME280;19885;42.208;24.952;2023-03-03T08:07:21;100107.72;;;9.01;87.04
33554;BME280;19885;42.208;24.952;2023-03-03T08:10:00;100095.38;;;8.88;87.22
33554;BME280;19885;42.208;24.952;2023-03-03T08:12:36;100112.59;;;8.83;87.63
33554;BME280;19885;42.208;24.952;2023-03-03T08:17:48;100109.09;;;7.94;89.17
33554;BME280;19885;42.208;24.952;2023-03-03T08:23:03;100091.50;;;8.21;89.22
33554;BME280;19885;42.208;24.952;2023-03-03T08:25:28;100100.97;;;8.19;87.29
33554;BME280;19885;42.208;24.952;2023-03-03T08:27:54;100080.59;;;8.37;87.37
33554;BME280;19885;42.208;24.952;2023-03-03T08:30:21;100084.69;;;8.73;86.32
33554;BME280;19885;42.208;24.952;2023-03-03T08:32:47;100083.59;;;8.58;85.16
33554;BME280;19885;42.208;24.952;2023-03-03T08:35:13;100083.94;;;8.78;85.66
33554;BME280;19885;42.208;24.952;2023-03-03T08:37:38;100081.00;;;9.11;84.10
33554;BME280;19885;42.208;24.952;2023-03-03T08:40:04;100081.19;;;9.23;83.21
33554;BME280;19885;42.208;24.952;2023-03-03T08:42:29;100066.28;;;9.10;84.35
33554;BME280;19885;42.208;24.952;2023-03-03T08:44:55;100072.91;;;9.48;83.62
33554;BME280;19885;42.208;24.952;2023-03-03T08:47:24;100061.69;;;9.52;83.05
33554;BME280;19885;42.208;24.952;2023-03-03T08:49:50;100065.03;;;9.42;82.48
33554;BME280;19885;42.208;24.952;2023-03-03T08:52:15;100075.06;;;9.76;83.86
33554;BME280;19885;42.208;24.952;2023-03-03T08:54:41;100050.00;;;9.84;83.55
33554;BME280;19885;42.208;24.952;2023-03-03T08:57:06;100068.38;;;9.96;84.50
33554;BME280;19885;42.208;24.952;2023-03-03T08:59:34;100059.78;;;10.03;85.24
33554;BME280;19885;42.208;24.952;2023-03-03T09:02:04;100064.78;;;9.87;83.65
33554;BME280;19885;42.208;24.952;2023-03-03T09:04:32;100043.06;;;9.86;84.18
33554;BME280;19885;42.208;24.952;2023-03-03T09:06:58;100054.13;;;9.70;82.34
33554;BME280;19885;42.208;24.952;2023-03-03T09:09:24;100065.72;;;9.93;85.12
33554;BME280;19885;42.208;24.952;2023-03-03T09:11:54;100062.28;;;9.94;84.04
33554;BME280;19885;42.208;24.952;2023-03-03T09:14:26;100054.47;;;9.94;83.42
33554;BME280;19885;42.208;24.952;2023-03-03T09:16:55;100057.13;;;10.00;85.18
33554;BME280;19885;42.208;24.952;2023-03-03T09:19:30;100062.34;;;10.00;83.81
33554;BME280;19885;42.208;24.952;2023-03-03T09:22:02;100065.81;;;10.02;82.73
33554;BME280;19885;42.208;24.952;2023-03-03T09:24:35;100062.22;;;9.91;82.95
33554;BME280;19885;42.208;24.952;2023-03-03T09:27:01;100038.81;;;9.93;83.50
33554;BME280;19885;42.208;24.952;2023-03-03T09:29:28;100053.94;;;10.20;84.45
33554;BME280;19885;42.208;24.952;2023-03-03T09:31:56;100060.13;;;10.31;82.56
33554;BME280;19885;42.208;24.952;2023-03-03T09:34:41;100054.13;;;10.38;81.99
33554;BME280;19885;42.208;24.952;2023-03-03T09:37:33;100054.09;;;10.35;81.83
33554;BME280;19885;42.208;24.952;2023-03-03T09:40:18;100043.84;;;10.53;81.11
33554;BME280;19885;42.208;24.952;2023-03-03T09:43:02;100031.47;;;10.34;80.17
33554;BME280;19885;42.208;24.952;2023-03-03T09:45:53;100025.94;;;10.06;79.79
33554;BME280;19885;42.208;24.952;2023-03-03T10:07:44;100034.41;;;10.65;80.69
33554;BME280;19885;42.208;24.952;2023-03-03T10:11:02;100030.59;;;10.32;80.76
33554;BME280;19885;42.208;24.952;2023-03-03T10:13:57;100024.53;;;10.33;80.00
33554;BME280;19885;42.208;24.952;2023-03-03T10:16:16;99957.66;;;9.52;81.96
33554;BME280;19885;42.208;24.952;2023-03-03T10:18:55;100023.78;;;9.69;83.77
33554;BME280;19885;42.208;24.952;2023-03-03T10:21:35;100027.22;;;9.67;84.82
33554;BME280;19885;42.208;24.952;2023-03-03T10:27:04;100016.75;;;9.02;85.02
33554;BME280;19885;42.208;24.952;2023-03-03T10:35:17;100015.09;;;9.07;88.67
33554;BME280;19885;42.208;24.952;2023-03-03T10:46:10;100021.59;;;8.78;90.12
33554;BME280;19885;42.208;24.952;2023-03-03T10:49:01;100012.06;;;8.79;91.47
33554;BME280;19885;42.208;24.952;2023-03-03T10:51:49;100008.13;;;9.03;91.87
33554;BME280;19885;42.208;24.952;2023-03-03T11:00:07;99988.03;;;8.93;93.05
33554;BME280;19885;42.208;24.952;2023-03-03T11:05:42;99998.22;;;8.80;91.46
33554;BME280;19885;42.208;24.952;2023-03-03T11:08:16;99989.75;;;8.93;92.30
33554;BME280;19885;42.208;24.952;2023-03-03T11:10:47;99988.09;;;8.96;92.26
33554;BME280;19885;42.208;24.952;2023-03-03T11:21:46;99967.28;;;8.95;90.41
33554;BME280;19885;42.208;24.952;2023-03-03T11:32:56;99967.38;;;9.01;90.42
33554;BME280;19885;42.208;24.952;2023-03-03T11:36:08;99966.53;;;9.03;88.34
33554;BME280;19885;42.208;24.952;2023-03-03T11:41:36;99953.84;;;9.26;88.03
33554;BME280;19885;42.208;24.952;2023-03-03T11:44:36;99957.75;;;8.95;87.13
33554;BME280;19885;42.208;24.952;2023-03-03T11:49:51;99951.06;;;9.14;86.82
33554;BME280;19885;42.208;24.952;2023-03-03T11:55:20;99952.44;;;9.52;84.54
33554;BME280;19885;42.208;24.952;2023-03-03T12:00:51;99946.66;;;9.77;83.77
33554;BME280;19885;42.208;24.952;2023-03-03T12:03:40;99938.84;;;9.77;83.97
33554;BME280;19885;42.208;24.952;2023-03-03T12:06:32;99945.34;;;10.14;82.26
33554;BME280;19885;42.208;24.952;2023-03-03T12:09:12;99936.97;;;10.48;81.68
33554;BME280;19885;42.208;24.952;2023-03-03T12:11:53;99878.72;;;10.36;81.93
33554;BME280;19885;42.208;24.952;2023-03-03T12:17:05;99938.47;;;10.21;79.31
33554;BME280;19885;42.208;24.952;2023-03-03T12:22:37;99932.75;;;10.64;78.87
33554;BME280;19885;42.208;24.952;2023-03-03T12:28:16;99926.25;;;11.43;77.49
33554;BME280;19885;42.208;24.952;2023-03-03T12:37:01;99912.53;;;11.94;76.39
33554;BME280;19885;42.208;24.952;2023-03-03T12:39:19;99914.28;;;11.98;73.82
33554;BME280;19885;42.208;24.952;2023-03-03T12:41:55;99910.81;;;12.15;76.04
33554;BME280;19885;42.208;24.952;2023-03-03T12:47:15;99918.63;;;12.06;71.88
33554;BME280;19885;42.208;24.952;2023-03-03T12:52:45;99914.25;;;11.78;75.47
33554;BME280;19885;42.208;24.952;2023-03-03T12:55:20;99918.59;;;11.82;75.24
33554;BME280;19885;42.208;24.952;2023-03-03T13:00:29;99909.75;;;11.39;78.88
33554;BME280;19885;42.208;24.952;2023-03-03T13:03:13;99904.47;;;11.33;80.26
33554;BME280;19885;42.208;24.952;2023-03-03T13:17:18;99913.75;;;10.82;81.74
33554;BME280;19885;42.208;24.952;2023-03-03T13:20:00;99911.03;;;10.62;82.39
33554;BME280;19885;42.208;24.952;2023-03-03T13:22:46;99904.97;;;10.66;82.72
33554;BME280;19885;42.208;24.952;2023-03-03T13:28:06;99906.69;;;10.62;82.87
33554;BME280;19885;42.208;24.952;2023-03-03T13:30:41;99909.34;;;10.70;81.96
33554;BME280;19885;42.208;24.952;2023-03-03T13:33:29;99904.13;;;10.70;81.72
33554;BME280;19885;42.208;24.952;2023-03-03T13:36:12;99906.66;;;10.58;80.88
33554;BME280;19885;42.208;24.952;2023-03-03T13:38:45;99847.19;;;10.05;80.92
33554;BME280;19885;42.208;24.952;2023-03-03T13:41:25;99897.94;;;10.53;81.29
33554;BME280;19885;42.208;24.952;2023-03-03T13:58:39;99850.94;;;10.41;82.80
33554;BME280;19885;42.208;24.952;2023-03-03T14:01:37;99889.41;;;10.72;82.40
33554;BME280;19885;42.208;24.952;2023-03-03T14:04:15;99894.56;;;10.69;80.69
33554;BME280;19885;42.208;24.952;2023-03-03T14:06:56;99894.56;;;10.66;79.78
33554;BME280;19885;42.208;24.952;2023-03-03T14:12:03;99889.34;;;10.63;78.98
33554;BME280;19885;42.208;24.952;2023-03-03T14:14:56;99835.25;;;10.32;80.33
33554;BME280;19885;42.208;24.952;2023-03-03T14:20:28;99876.03;;;10.28;78.52
33554;BME280;19885;42.208;24.952;2023-03-03T14:22:58;99887.22;;;10.17;80.61
33554;BME280;19885;42.208;24.952;2023-03-03T14:25:28;99883.94;;;10.36;79.72
33554;BME280;19885;42.208;24.952;2023-03-03T14:28:11;99891.03;;;10.58;80.66
33554;BME280;19885;42.208;24.952;2023-03-03T14:30:44;99889.34;;;10.66;78.78
33554;BME280;19885;42.208;24.952;2023-03-03T14:38:43;99880.41;;;10.34;78.25
33554;BME280;19885;42.208;24.952;2023-03-03T14:41:20;99887.44;;;10.44;77.49
33554;BME280;19885;42.208;24.952;2023-03-03T14:44:00;99874.56;;;10.60;77.33
33554;BME280;19885;42.208;24.952;2023-03-03T14:49:00;99873.63;;;10.51;77.61
33554;BME280;19885;42.208;24.952;2023-03-03T14:51:47;99865.47;;;10.13;79.15
33554;BME280;19885;42.208;24.952;2023-03-03T14:54:27;99845.94;;;9.64;80.09
33554;BME280;19885;42.208;24.952;2023-03-03T14:59:23;99853.91;;;9.82;79.64
33554;BME280;19885;42.208;24.952;2023-03-03T15:04:41;99869.41;;;9.70;81.76
33554;BME280;19885;42.208;24.952;2023-03-03T15:07:52;99861.50;;;9.58;82.62
33554;BME280;19885;42.208;24.952;2023-03-03T15:10:11;99865.66;;;9.44;83.60
33554;BME280;19885;42.208;24.952;2023-03-03T15:12:41;99859.47;;;9.36;83.39
33554;BME280;19885;42.208;24.952;2023-03-03T15:15:17;99870.88;;;9.44;82.82
33554;BME280;19885;42.208;24.952;2023-03-03T15:30:50;99850.75;;;9.28;84.61
33554;BME280;19885;42.208;24.952;2023-03-03T15:54:25;99841.38;;;9.45;84.17
33554;BME280;19885;42.208;24.952;2023-03-03T15:57:00;99893.84;;;9.84;83.18
33554;BME280;19885;42.208;24.952;2023-03-03T16:02:20;99849.31;;;9.56;83.65
33554;BME280;19885;42.208;24.952;2023-03-03T16:04:54;99882.44;;;9.72;81.72
33554;BME280;19885;42.208;24.952;2023-03-03T16:10:33;99899.06;;;9.87;83.41
33554;BME280;19885;42.208;24.952;2023-03-03T16:15:49;99913.72;;;9.79;82.80
33554;BME280;19885;42.208;24.952;2023-03-03T16:18:46;99914.16;;;9.41;82.53
33554;BME280;19885;42.208;24.952;2023-03-03T16:27:27;99928.28;;;9.62;82.01
33554;BME280;19885;42.208;24.952;2023-03-03T16:32:36;99933.53;;;9.65;83.89
33554;BME280;19885;42.208;24.952;2023-03-03T16:35:27;99927.16;;;9.41;83.44
33554;BME280;19885;42.208;24.952;2023-03-03T16:38:08;99928.63;;;9.20;83.16
33554;BME280;19885;42.208;24.952;2023-03-03T16:40:56;99936.72;;;9.40;83.42
33554;BME280;19885;42.208;24.952;2023-03-03T16:46:42;99932.81;;;9.11;84.59
33554;BME280;19885;42.208;24.952;2023-03-03T16:51:57;99937.31;;;9.19;84.74
33554;BME280;19885;42.208;24.952;2023-03-03T16:57:32;99943.81;;;9.53;82.69
33554;BME280;19885;42.208;24.952;2023-03-03T17:06:12;99939.19;;;9.32;85.57
33554;BME280;19885;42.208;24.952;2023-03-03T17:23:24;99937.72;;;8.88;86.63
33554;BME280;19885;42.208;24.952;2023-03-03T17:25:56;99961.00;;;8.82;85.44
33554;BME280;19885;42.208;24.952;2023-03-03T17:34:14;99972.72;;;8.08;88.78
33554;BME280;19885;42.208;24.952;2023-03-03T17:42:48;99990.72;;;8.45;88.19
33554;BME280;19885;42.208;24.952;2023-03-03T17:45:19;100000.56;;;8.63;87.63
33554;BME280;19885;42.208;24.952;2023-03-03T18:23:34;99992.94;;;8.24;96.51
33554;BME280;19885;42.208;24.952;2023-03-03T18:26:42;100002.22;;;8.13;97.32
33554;BME280;19885;42.208;24.952;2023-03-03T18:29:36;99995.31;;;7.70;100.00